createdAt,value
2023-04-15T00:06:26.305Z,95040.78
2023-04-15T00:16:28.746Z,95038.97
2023-04-15T00:26:32.471Z,95043.31
2023-04-15T00:36:35.650Z,95025.75
2023-04-15T00:46:40.079Z,95039.63
2023-04-15T00:56:42.943Z,95035.91
2023-04-15T01:06:47.154Z,95038.97
2023-04-15T01:16:49.561Z,95036.97
2023-04-15T01:26:53.263Z,95033.31
2023-04-15T01:36:55.713Z,95033.22
2023-04-15T01:46:59.777Z,95027.28
2023-04-15T01:57:02.339Z,95018.72
2023-04-15T02:07:06.067Z,95024.97
2023-04-15T02:17:08.544Z,95022.38
2023-04-15T02:27:16.136Z,95019.50
2023-04-15T02:37:20.339Z,95017.47
2023-04-15T02:47:24.210Z,95022.16
2023-04-15T02:57:26.799Z,95020.16
2023-04-15T03:07:30.687Z,95024.91
2023-04-15T03:17:33.238Z,95032.44
2023-04-15T03:27:37.033Z,95027.19
2023-04-15T03:37:39.493Z,95020.47
2023-04-15T03:47:43.430Z,95011.97
2023-04-15T03:57:45.970Z,95018.56
2023-04-15T04:07:49.971Z,95014.84
2023-04-15T04:17:52.513Z,95023.72
2023-04-15T04:27:56.356Z,95019.38
2023-04-15T04:37:58.762Z,95026.94
2023-04-15T04:48:02.560Z,95026.53
2023-04-15T04:58:04.989Z,95039.06
2023-04-15T05:08:08.734Z,95044.94
2023-04-15T05:18:11.109Z,95054.03
2023-04-15T05:28:14.935Z,95042.97
2023-04-15T05:38:17.318Z,95043.31
2023-04-15T05:48:21.385Z,95043.44
2023-04-15T05:58:23.885Z,95057.59
2023-04-15T06:08:27.849Z,95063.47
2023-04-15T06:18:30.348Z,95052.19
2023-04-15T06:28:34.114Z,95061.34
2023-04-15T06:38:36.524Z,95066.16
2023-04-15T06:48:40.275Z,95080.31
2023-04-15T06:58:43.036Z,95074.91
2023-04-15T07:08:46.749Z,95077.06
2023-04-15T07:18:49.137Z,95074.19
2023-04-15T07:28:52.873Z,95071.22
2023-04-15T07:38:55.542Z,95079.56
2023-04-15T07:48:59.299Z,95068.47
2023-04-15T07:59:02.414Z,95068.53
2023-04-15T08:09:07.114Z,95068.97
2023-04-15T08:19:09.526Z,95073.16
2023-04-15T08:29:13.330Z,95073.16
2023-04-15T08:39:16.023Z,95070.25
2023-04-15T08:49:20.265Z,95073.66
2023-04-15T08:59:22.808Z,95082.56
2023-04-15T09:09:26.543Z,95086.91
2023-04-15T09:19:29.230Z,95091.28
2023-04-15T09:29:33.328Z,95105.38
2023-04-15T09:39:49.936Z,95101.97
2023-04-15T09:49:57.761Z,95110.59
2023-04-15T10:00:00.417Z,95108.75
2023-04-15T10:10:05.351Z,95105.50
2023-04-15T10:20:09.322Z,95109.78
2023-04-15T10:30:13.629Z,95106.91
2023-04-15T10:40:27.290Z,95111.97
2023-04-15T10:50:32.681Z,95122.16
2023-04-15T11:00:39.542Z,95122.41
2023-04-15T11:10:56.842Z,95127.19
2023-04-15T11:21:01.697Z,95138.63
2023-04-15T11:31:08.554Z,95134.47
2023-04-15T11:41:12.378Z,95144.53
2023-04-15T11:51:15.359Z,95151.16
2023-04-15T12:01:19.148Z,95168.81
2023-04-15T12:11:22.147Z,95165.34
2023-04-15T12:21:26.536Z,95185.88
2023-04-15T12:31:29.095Z,95193.38
2023-04-15T12:41:33.129Z,95206.94
2023-04-15T12:51:35.632Z,95226.19
2023-04-15T13:01:39.715Z,95231.94
2023-04-15T13:11:42.132Z,95241.78
2023-04-15T13:21:46.036Z,95253.13
2023-04-15T13:31:48.552Z,95253.03
2023-04-15T13:41:52.378Z,95282.38
2023-04-15T13:51:54.763Z,95291.34
2023-04-15T14:01:58.605Z,95312.06
2023-04-15T14:12:01.368Z,95339.91
2023-04-15T14:22:05.128Z,95348.97
2023-04-15T14:32:11.891Z,95356.78
2023-04-15T14:42:16.428Z,95372.91
2023-04-15T14:52:18.834Z,95374.47
2023-04-15T15:02:37.372Z,95385.47
2023-04-15T15:12:41.261Z,95400.75
2023-04-15T15:22:44.987Z,95420.25
2023-04-15T15:32:47.416Z,95420.81
2023-04-15T15:42:51.247Z,95449.22
2023-04-15T15:52:53.709Z,95461.44
2023-04-15T16:13:03.661Z,95472.13
2023-04-15T16:23:12.586Z,95493.16
2023-04-15T16:33:15.028Z,95506.31
2023-04-15T16:43:18.834Z,95515.41
2023-04-15T16:53:21.249Z,95524.97
2023-04-15T17:03:25.325Z,95540.25
2023-04-15T17:13:27.917Z,95566.28
2023-04-15T17:23:31.985Z,95580.97
2023-04-15T17:34:00.513Z,95608.03
2023-04-15T17:43:58.323Z,95632.13
2023-04-15T17:54:00.772Z,95649.19
2023-04-15T18:04:04.886Z,95655.25
2023-04-15T18:14:07.937Z,95669.44
2023-04-15T18:24:11.743Z,95675.13
2023-04-15T18:34:14.181Z,95696.56
2023-04-15T18:44:17.963Z,95720.44
2023-04-15T18:54:20.683Z,95721.41
2023-04-15T19:04:24.440Z,95738.06
2023-04-15T19:14:26.920Z,95752.91
2023-04-15T19:24:32.975Z,95759.75
2023-04-15T19:34:35.833Z,95766.59
2023-04-15T19:44:42.673Z,95785.59
2023-04-15T19:54:45.096Z,95777.69
2023-04-15T20:04:49.558Z,95793.69
2023-04-15T20:14:52.355Z,95792.41
2023-04-15T20:24:56.057Z,95792.31
2023-04-15T20:34:58.410Z,95802.16
2023-04-15T20:45:02.367Z,95793.13
2023-04-15T20:55:05.558Z,95799.69
2023-04-15T21:05:09.586Z,95794.25
2023-04-15T21:15:12.339Z,95802.41
2023-04-15T21:25:16.192Z,95809.47
2023-04-15T21:35:18.651Z,95824.38
2023-04-15T21:45:22.626Z,95834.38
2023-04-15T21:55:27.008Z,95831.38
2023-04-15T22:05:30.942Z,95840.06
2023-04-15T22:15:33.386Z,95847.03
2023-04-15T22:25:37.824Z,95858.16
2023-04-15T22:35:41.956Z,95855.97
2023-04-15T22:45:48.840Z,95883.03
2023-04-15T22:55:51.746Z,95883.03
2023-04-15T23:05:55.551Z,95885.47
2023-04-15T23:15:58.028Z,95895.09
2023-04-15T23:26:03.859Z,95895.09
2023-04-15T23:36:06.998Z,95904.72
2023-04-15T23:46:15.492Z,95906.94
2023-04-15T23:56:18.081Z,95910.88
